createdAt,value
2023-01-18T07:59:28.147Z,2.83
2023-01-18T08:05:10.823Z,3.05
2023-01-18T08:07:37.743Z,2.42
2023-01-18T08:10:09.223Z,3.03
2023-01-18T08:18:31.241Z,2.70
2023-01-18T08:20:58.542Z,2.28
2023-01-18T08:23:25.625Z,2.60
2023-01-18T08:25:52.528Z,2.35
2023-01-18T08:28:19.756Z,2.88
2023-01-18T08:30:48.900Z,2.60
2023-01-18T08:33:15.833Z,2.55
2023-01-18T08:35:46.354Z,2.25
2023-01-18T08:38:16.131Z,2.38
2023-01-18T08:40:43.466Z,2.40
2023-01-18T08:43:12.041Z,2.72
2023-01-18T08:45:39.002Z,2.58
2023-01-18T08:48:10.252Z,2.95
2023-01-18T08:50:39.061Z,2.60
2023-01-18T08:53:06.592Z,3.00
2023-01-18T08:55:36.417Z,2.42
2023-01-18T08:58:03.306Z,3.05
2023-01-18T09:00:30.549Z,3.00
2023-01-18T09:02:59.162Z,2.45
2023-01-18T09:05:27.041Z,2.92
2023-01-18T09:07:55.906Z,2.33
2023-01-18T09:10:23.289Z,2.33
2023-01-18T09:12:52.795Z,3.03
2023-01-18T09:15:20.643Z,2.53
2023-01-18T09:17:47.536Z,2.10
2023-01-18T09:20:16.073Z,2.03
2023-01-18T09:22:47.772Z,2.13
2023-01-18T09:25:17.917Z,2.25
2023-01-18T09:27:46.572Z,2.33
2023-01-18T09:30:16.068Z,2.08
2023-01-18T09:32:43.066Z,2.90
2023-01-18T09:35:10.337Z,2.17
2023-01-18T09:37:37.475Z,2.80
2023-01-18T09:40:05.059Z,2.53
2023-01-18T09:42:38.738Z,3.20
2023-01-18T09:45:06.834Z,2.67
2023-01-18T09:47:46.253Z,2.65
2023-01-18T09:50:16.380Z,2.55
2023-01-18T09:52:58.721Z,2.42
2023-01-18T09:55:48.274Z,2.90
2023-01-18T09:59:07.033Z,3.10
2023-01-18T10:01:35.805Z,2.38
2023-01-18T10:04:17.345Z,2.70
2023-01-18T10:07:00.102Z,2.13
2023-01-18T10:09:36.615Z,2.30
2023-01-18T10:15:01.211Z,2.55
2023-01-18T10:17:40.668Z,3.28
2023-01-18T10:20:17.850Z,3.13
2023-01-18T10:23:25.818Z,3.35
2023-01-18T10:26:07.809Z,3.58
2023-01-18T10:29:01.274Z,3.10
2023-01-18T10:32:04.270Z,3.70
2023-01-18T10:34:35.727Z,3.67
2023-01-18T10:37:14.984Z,3.60
2023-01-18T10:39:51.519Z,3.13
2023-01-18T10:44:52.409Z,3.10
2023-01-18T10:47:20.400Z,3.00
2023-01-18T10:49:50.613Z,4.40
2023-01-18T10:52:18.262Z,4.28
2023-01-18T10:54:59.660Z,3.92
2023-01-18T10:57:32.210Z,4.35
2023-01-18T10:59:59.794Z,4.35
2023-01-18T11:02:36.339Z,3.75
2023-01-18T11:05:28.797Z,3.53
2023-01-18T11:08:24.334Z,3.05
2023-01-18T11:11:18.818Z,4.82
2023-01-18T11:13:50.349Z,3.45
2023-01-18T11:16:23.060Z,4.13
2023-01-18T11:19:06.116Z,4.00
2023-01-18T11:21:41.087Z,3.85
2023-01-18T11:24:17.788Z,3.85
2023-01-18T11:26:54.716Z,3.70
2023-01-18T11:29:28.270Z,4.10
2023-01-18T11:32:01.202Z,3.80
2023-01-18T11:34:39.074Z,3.92
2023-01-18T11:37:34.935Z,4.82
2023-01-18T11:40:28.863Z,4.40
2023-01-18T11:43:29.652Z,4.05
2023-01-18T11:46:05.981Z,4.13
2023-01-18T11:48:48.949Z,4.15
2023-01-18T11:51:38.883Z,3.78
2023-01-18T11:54:29.122Z,3.78
2023-01-18T11:56:59.711Z,3.80
2023-01-18T11:59:37.499Z,4.13
2023-01-18T12:02:10.192Z,4.00
2023-01-18T12:05:12.857Z,3.28
2023-01-18T12:08:03.607Z,3.90
2023-01-18T12:10:54.652Z,4.30
2023-01-18T12:13:43.592Z,4.00
2023-01-18T12:16:20.106Z,4.10
2023-01-18T12:19:30.699Z,4.35
2023-01-18T12:22:50.219Z,4.53
2023-01-18T12:25:44.241Z,4.15
2023-01-18T12:28:37.931Z,4.20
2023-01-18T12:31:19.747Z,3.97
2023-01-18T12:34:08.239Z,4.32
2023-01-18T12:37:14.007Z,4.18
2023-01-18T12:40:08.748Z,4.60
2023-01-18T12:42:54.398Z,3.72
2023-01-18T12:46:04.709Z,3.50
2023-01-18T12:48:48.517Z,4.38
2023-01-18T12:51:21.759Z,5.25
2023-01-18T12:54:34.638Z,4.55
2023-01-18T12:57:04.126Z,4.13
2023-01-18T12:59:52.775Z,4.82
2023-01-18T13:02:45.826Z,3.78
2023-01-18T13:05:26.786Z,3.72
2023-01-18T13:08:06.360Z,4.38
2023-01-18T13:10:34.810Z,4.35
2023-01-18T13:13:04.249Z,4.20
2023-01-18T13:16:04.333Z,3.47
2023-01-18T13:18:57.946Z,3.58
2023-01-18T13:22:00.034Z,3.60
2023-01-18T13:24:42.865Z,3.97
2023-01-18T13:27:13.279Z,3.95
2023-01-18T13:29:41.212Z,3.63
2023-01-18T13:32:28.937Z,4.07
2023-01-18T13:35:17.972Z,3.88
2023-01-18T13:37:51.719Z,3.53
2023-01-18T13:40:42.730Z,3.30
2023-01-18T13:43:37.382Z,3.30
2023-01-18T13:46:07.525Z,4.15
2023-01-18T13:48:57.239Z,3.13
2023-01-18T13:51:47.357Z,3.05
2023-01-18T13:54:21.178Z,2.92
2023-01-18T13:57:05.873Z,3.45
2023-01-18T13:59:39.148Z,3.33
2023-01-18T14:02:34.492Z,3.28
2023-01-18T14:05:28.469Z,4.55
2023-01-18T14:07:59.141Z,4.05
2023-01-18T14:10:33.128Z,4.03
2023-01-18T14:13:04.440Z,3.67
2023-01-18T14:15:52.443Z,4.22
2023-01-18T14:18:30.952Z,3.85
2023-01-18T14:21:28.417Z,3.88
2023-01-18T14:26:38.186Z,3.17
2023-01-18T14:29:11.176Z,3.55
2023-01-18T14:31:45.678Z,3.63
2023-01-18T14:34:30.228Z,4.38
2023-01-18T14:36:58.180Z,4.05
2023-01-18T14:39:26.039Z,3.50
2023-01-18T14:42:04.095Z,4.00
2023-01-18T14:44:57.429Z,4.10
2023-01-18T14:47:30.689Z,3.60
2023-01-18T14:49:58.717Z,4.88
2023-01-18T14:52:31.074Z,4.65
2023-01-18T14:54:58.287Z,4.40
2023-01-18T14:57:25.472Z,3.88
2023-01-18T15:00:08.592Z,4.60
2023-01-18T15:02:38.829Z,4.20
2023-01-18T15:05:17.630Z,3.63
2023-01-18T15:07:55.876Z,3.47
2023-01-18T15:10:24.139Z,4.18
2023-01-18T15:12:55.353Z,3.92
2023-01-18T15:15:31.237Z,3.70
2023-01-18T15:18:11.385Z,3.78
2023-01-18T15:20:52.209Z,4.15
2023-01-18T15:23:19.807Z,4.15
2023-01-18T15:25:51.527Z,4.15
2023-01-18T15:28:24.012Z,4.03
2023-01-18T15:30:56.178Z,4.03
2023-01-18T15:33:25.505Z,4.15
2023-01-18T15:36:04.291Z,4.15
2023-01-18T15:38:31.597Z,5.07
2023-01-18T15:41:05.303Z,4.80
2023-01-18T15:43:43.755Z,5.18
2023-01-18T15:46:15.268Z,5.43
2023-01-18T15:48:55.934Z,5.53
2023-01-18T15:51:44.152Z,5.25
2023-01-18T15:54:19.899Z,5.68
2023-01-18T15:56:48.287Z,6.35
2023-01-18T15:59:22.363Z,5.50
2023-01-18T16:02:19.732Z,5.95
2023-01-18T16:04:47.113Z,5.28
2023-01-18T16:07:30.781Z,5.90
2023-01-18T16:10:30.179Z,6.18
2023-01-18T16:13:26.474Z,5.60
2023-01-18T16:16:21.419Z,5.30
2023-01-18T16:19:05.705Z,5.60
2023-01-18T16:21:41.799Z,5.25
2023-01-18T16:24:31.384Z,5.75
2023-01-18T16:27:33.785Z,5.40
2023-01-18T16:30:14.713Z,5.55
2023-01-18T16:32:41.691Z,5.53
2023-01-18T16:35:09.965Z,6.15
2023-01-18T16:37:41.413Z,5.80
2023-01-18T16:40:09.469Z,6.18
2023-01-18T16:43:01.471Z,6.38
2023-01-18T16:45:30.986Z,6.53
2023-01-18T16:47:58.030Z,6.72
2023-01-18T16:50:25.573Z,6.93
2023-01-18T16:52:52.803Z,8.02
2023-01-18T16:55:19.666Z,6.65
2023-01-18T16:57:46.803Z,6.45
2023-01-18T17:00:21.808Z,5.78
2023-01-18T17:02:49.385Z,5.88
2023-01-18T17:05:16.776Z,6.20
2023-01-18T17:07:44.446Z,7.00
2023-01-18T17:10:45.484Z,7.20
2023-01-18T17:13:12.470Z,6.65
2023-01-18T17:15:43.760Z,5.68
2023-01-18T17:18:17.323Z,5.05
2023-01-18T17:20:44.977Z,6.13
2023-01-18T17:23:12.404Z,5.25
2023-01-18T17:25:39.670Z,6.20
2023-01-18T17:28:07.950Z,9.23
2023-01-18T17:30:35.123Z,6.90
2023-01-18T17:33:02.196Z,6.22
2023-01-18T17:35:29.439Z,5.60
2023-01-18T17:38:04.617Z,5.97
2023-01-18T17:40:39.925Z,5.18
2023-01-18T17:43:33.024Z,5.35
2023-01-18T17:46:06.376Z,5.28
2023-01-18T17:48:33.845Z,5.32
2023-01-18T17:51:00.800Z,6.25
2023-01-18T17:53:27.982Z,6.20
2023-01-18T17:55:54.942Z,5.93
2023-01-18T17:58:21.871Z,6.10
2023-01-18T18:00:48.769Z,6.05
2023-01-18T18:03:16.060Z,6.90
2023-01-18T18:05:43.608Z,8.55
2023-01-18T18:08:10.567Z,6.70
2023-01-18T18:10:37.675Z,5.78
2023-01-18T18:13:04.629Z,6.97
2023-01-18T18:15:31.807Z,6.13
2023-01-18T18:17:58.766Z,6.82
2023-01-18T18:20:25.753Z,6.30
2023-01-18T18:22:52.570Z,6.60
2023-01-18T18:25:19.788Z,6.10
2023-01-18T18:27:47.428Z,6.60
2023-01-18T18:30:17.576Z,6.53
2023-01-18T18:32:44.580Z,6.10
2023-01-18T18:35:24.523Z,6.38
2023-01-18T18:37:53.669Z,6.30
2023-01-18T18:40:21.131Z,6.35
2023-01-18T18:43:00.821Z,6.47
2023-01-18T18:45:33.461Z,6.78
2023-01-18T18:48:00.886Z,6.88
2023-01-18T18:50:28.755Z,6.43
2023-01-18T18:52:55.952Z,5.85
2023-01-18T18:55:23.770Z,6.72
2023-01-18T18:57:50.712Z,7.75
2023-01-18T19:00:18.375Z,7.45
2023-01-18T19:02:45.651Z,7.53
2023-01-18T19:05:12.544Z,7.70
2023-01-18T19:07:39.739Z,7.57
2023-01-18T19:10:07.419Z,8.02
2023-01-18T19:12:34.831Z,9.40
2023-01-18T19:15:01.892Z,9.43
2023-01-18T19:17:31.704Z,8.48
2023-01-18T19:19:59.446Z,7.85
2023-01-18T19:22:26.445Z,7.75
2023-01-18T19:24:53.439Z,9.25
2023-01-18T19:27:21.458Z,8.98
2023-01-18T19:29:48.497Z,7.90
2023-01-18T19:32:15.666Z,8.65
2023-01-18T19:34:42.516Z,8.43
2023-01-18T19:37:09.605Z,8.32
2023-01-18T19:39:36.537Z,8.90
2023-01-18T19:42:03.733Z,10.95
2023-01-18T19:44:30.547Z,8.38
2023-01-18T19:46:57.693Z,8.63
2023-01-18T19:49:25.743Z,10.65
2023-01-18T19:51:54.278Z,9.77
2023-01-18T19:54:21.612Z,9.05
2023-01-18T19:56:48.550Z,10.68
2023-01-18T19:59:15.738Z,10.13
2023-01-18T20:01:43.360Z,8.77
2023-01-18T20:04:10.822Z,9.05
2023-01-18T20:06:39.416Z,9.52
2023-01-18T20:09:18.544Z,10.73
2023-01-18T20:11:47.365Z,11.68
2023-01-18T20:14:14.621Z,11.70
2023-01-18T20:16:43.899Z,12.35
2023-01-18T20:19:14.252Z,11.15
2023-01-18T20:21:41.476Z,11.35
2023-01-18T20:24:09.143Z,12.63
2023-01-18T20:26:39.620Z,11.43
2023-01-18T20:29:08.399Z,12.05
2023-01-18T20:31:37.262Z,12.25
2023-01-18T20:34:05.329Z,12.57
2023-01-18T20:36:34.758Z,14.23
2023-01-18T20:39:03.617Z,13.88
2023-01-18T20:41:30.645Z,15.15
2023-01-18T20:43:57.659Z,13.07
2023-01-18T20:46:24.599Z,12.65
2023-01-18T20:48:51.448Z,11.43
2023-01-18T20:51:18.661Z,13.57
2023-01-18T20:53:45.732Z,13.07
2023-01-18T20:56:27.856Z,12.52
2023-01-18T20:58:56.294Z,13.55
2023-01-18T21:01:23.649Z,13.30
2023-01-18T21:03:56.088Z,12.98
2023-01-18T21:06:23.607Z,11.63
2023-01-18T21:08:55.679Z,12.73
2023-01-18T21:11:23.565Z,12.30
2023-01-18T21:13:52.646Z,12.00
2023-01-18T21:16:20.059Z,12.52
2023-01-18T21:18:47.970Z,12.05
2023-01-18T21:21:15.218Z,11.30
2023-01-18T21:23:42.276Z,11.10
2023-01-18T21:26:12.139Z,11.48
2023-01-18T21:28:39.489Z,12.38
2023-01-18T21:31:07.057Z,10.43
2023-01-18T21:33:34.555Z,10.77
2023-01-18T21:36:12.649Z,11.70
2023-01-18T21:38:39.669Z,10.73
2023-01-18T21:41:25.161Z,12.25
2023-01-18T21:44:12.498Z,11.80
2023-01-18T21:46:48.345Z,11.07
2023-01-18T21:49:52.188Z,11.13
2023-01-18T21:52:39.944Z,11.27
2023-01-18T21:55:07.190Z,10.77
2023-01-18T21:57:35.071Z,11.18
2023-01-18T22:00:02.401Z,11.70
2023-01-18T22:02:35.098Z,12.18
2023-01-18T22:05:04.859Z,13.20
2023-01-18T22:07:35.059Z,12.50
2023-01-18T22:10:05.709Z,14.65
2023-01-18T22:12:35.300Z,13.90
2023-01-18T22:15:04.636Z,12.77
2023-01-18T22:17:31.923Z,12.88
2023-01-18T22:19:59.216Z,13.20
2023-01-18T22:22:26.243Z,12.93
2023-01-18T22:24:53.515Z,11.90
2023-01-18T22:27:20.385Z,13.02
2023-01-18T22:29:47.203Z,11.88
2023-01-18T22:32:14.384Z,12.93
2023-01-18T22:34:41.267Z,13.82
2023-01-18T22:37:08.139Z,14.00
2023-01-18T22:39:35.162Z,13.65
2023-01-18T22:42:02.012Z,14.18
2023-01-18T22:44:29.088Z,13.95
2023-01-18T22:46:55.968Z,13.88
2023-01-18T22:49:23.209Z,13.43
2023-01-18T22:51:50.016Z,14.20
2023-01-18T22:54:19.269Z,12.98
2023-01-18T22:56:46.122Z,14.00
2023-01-18T22:59:13.590Z,14.75
2023-01-18T23:01:40.655Z,12.15
2023-01-18T23:04:07.514Z,13.65
2023-01-18T23:06:45.730Z,12.43
2023-01-18T23:09:17.582Z,13.30
2023-01-18T23:11:47.266Z,12.80
2023-01-18T23:14:32.727Z,12.57
2023-01-18T23:17:18.407Z,11.30
2023-01-18T23:19:45.888Z,12.25
2023-01-18T23:22:12.942Z,12.10
2023-01-18T23:24:40.384Z,10.52
2023-01-18T23:27:11.811Z,12.40
2023-01-18T23:29:39.233Z,12.77
2023-01-18T23:32:08.452Z,11.95
2023-01-18T23:34:35.395Z,12.20
2023-01-18T23:37:02.516Z,11.77
2023-01-18T23:39:47.639Z,12.05
2023-01-18T23:42:33.146Z,10.82
2023-01-18T23:45:18.563Z,10.35
2023-01-18T23:48:04.349Z,11.20
2023-01-18T23:50:50.194Z,12.50
2023-01-18T23:53:35.430Z,10.65
2023-01-18T23:56:02.464Z,11.38
2023-01-18T23:58:29.335Z,10.98
